sensor_id;sensor_type;location;lat;lon;timestamp;temperature;humidity
65876;HTU21D;52657;51.128;5.938;2024-01-30T00:00:49;10.58;68.08
65876;HTU21D;52657;51.128;5.938;2024-01-30T00:03:14;10.59;67.98
65876;HTU21D;52657;51.128;5.938;2024-01-30T00:05:40;10.58;67.84
65876;HTU21D;52657;51.128;5.938;2024-01-30T00:08:06;10.56;67.75
65876;HTU21D;52657;51.128;5.938;2024-01-30T00:10:32;10.54;67.72
65876;HTU21D;52657;51.128;5.938;2024-01-30T00:12:58;10.49;67.72
65876;HTU21D;52657;51.128;5.938;2024-01-30T00:15:23;10.45;67.79
65876;HTU21D;52657;51.128;5.938;2024-01-30T00:17:49;10.41;67.84
65876;HTU21D;52657;51.128;5.938;2024-01-30T00:20:17;10.38;67.99
65876;HTU21D;52657;51.128;5.938;2024-01-30T00:22:43;10.35;68.03
65876;HTU21D;52657;51.128;5.938;2024-01-30T00:25:09;10.33;68.14
65876;HTU21D;52657;51.128;5.938;2024-01-30T00:27:35;10.36;68.26
65876;HTU21D;52657;51.128;5.938;2024-01-30T00:30:01;10.34;68.27
65876;HTU21D;52657;51.128;5.938;2024-01-30T00:32:27;10.35;68.30
65876;HTU21D;52657;51.128;5.938;2024-01-30T00:34:52;10.36;68.35
65876;HTU21D;52657;51.128;5.938;2024-01-30T00:37:18;10.36;68.36
65876;HTU21D;52657;51.128;5.938;2024-01-30T00:39:44;10.36;68.35
65876;HTU21D;52657;51.128;5.938;2024-01-30T00:42:10;10.35;68.36
65876;HTU21D;52657;51.128;5.938;2024-01-30T00:44:36;10.35;68.49
65876;HTU21D;52657;51.128;5.938;2024-01-30T00:47:05;10.37;68.34
65876;HTU21D;52657;51.128;5.938;2024-01-30T00:49:32;10.36;68.35
65876;HTU21D;52657;51.128;5.938;2024-01-30T00:51:58;10.37;68.41
65876;HTU21D;52657;51.128;5.938;2024-01-30T00:54:23;10.38;68.52
65876;HTU21D;52657;51.128;5.938;2024-01-30T00:56:49;10.40;68.63
65876;HTU21D;52657;51.128;5.938;2024-01-30T00:59:15;10.39;68.59
65876;HTU21D;52657;51.128;5.938;2024-01-30T01:01:41;10.39;68.59
65876;HTU21D;52657;51.128;5.938;2024-01-30T01:04:06;10.39;68.63
65876;HTU21D;52657;51.128;5.938;2024-01-30T01:06:32;10.39;68.65
65876;HTU21D;52657;51.128;5.938;2024-01-30T01:08:58;10.40;68.64
65876;HTU21D;52657;51.128;5.938;2024-01-30T01:11:24;10.40;68.64
65876;HTU21D;52657;51.128;5.938;2024-01-30T01:13:50;10.40;68.62
65876;HTU21D;52657;51.128;5.938;2024-01-30T01:16:16;10.39;68.50
65876;HTU21D;52657;51.128;5.938;2024-01-30T01:18:42;10.38;68.49
65876;HTU21D;52657;51.128;5.938;2024-01-30T01:21:07;10.36;68.56
65876;HTU21D;52657;51.128;5.938;2024-01-30T01:23:33;10.37;68.58
65876;HTU21D;52657;51.128;5.938;2024-01-30T01:25:59;10.37;68.53
65876;HTU21D;52657;51.128;5.938;2024-01-30T01:28:26;10.36;68.49
65876;HTU21D;52657;51.128;5.938;2024-01-30T01:30:52;10.35;68.55
65876;HTU21D;52657;51.128;5.938;2024-01-30T01:33:18;10.35;68.55
65876;HTU21D;52657;51.128;5.938;2024-01-30T01:35:44;10.35;68.69
65876;HTU21D;52657;51.128;5.938;2024-01-30T01:38:10;10.33;68.60
65876;HTU21D;52657;51.128;5.938;2024-01-30T01:40:36;10.30;68.58
65876;HTU21D;52657;51.128;5.938;2024-01-30T01:43:05;10.30;68.61
65876;HTU21D;52657;51.128;5.938;2024-01-30T01:45:32;10.29;68.69
65876;HTU21D;52657;51.128;5.938;2024-01-30T01:47:58;10.31;68.76
65876;HTU21D;52657;51.128;5.938;2024-01-30T01:50:24;10.35;68.78
65876;HTU21D;52657;51.128;5.938;2024-01-30T01:52:50;10.35;68.85
65876;HTU21D;52657;51.128;5.938;2024-01-30T01:55:21;10.35;68.79
65876;HTU21D;52657;51.128;5.938;2024-01-30T01:57:48;10.37;68.89
65876;HTU21D;52657;51.128;5.938;2024-01-30T02:00:14;10.36;68.90
65876;HTU21D;52657;51.128;5.938;2024-01-30T02:02:43;10.37;68.79
65876;HTU21D;52657;51.128;5.938;2024-01-30T02:05:11;10.33;68.81
65876;HTU21D;52657;51.128;5.938;2024-01-30T02:18:20;10.30;69.01
65876;HTU21D;52657;51.128;5.938;2024-01-30T02:20:47;10.29;69.04
65876;HTU21D;52657;51.128;5.938;2024-01-30T02:23:15;10.33;69.08
65876;HTU21D;52657;51.128;5.938;2024-01-30T02:25:43;10.34;69.10
65876;HTU21D;52657;51.128;5.938;2024-01-30T02:28:13;10.34;69.11
65876;HTU21D;52657;51.128;5.938;2024-01-30T02:30:39;10.35;69.14
65876;HTU21D;52657;51.128;5.938;2024-01-30T02:33:08;10.35;69.19
65876;HTU21D;52657;51.128;5.938;2024-01-30T02:35:34;10.33;69.19
65876;HTU21D;52657;51.128;5.938;2024-01-30T02:38:06;10.33;69.13
65876;HTU21D;52657;51.128;5.938;2024-01-30T02:40:35;10.30;69.17
65876;HTU21D;52657;51.128;5.938;2024-01-30T02:43:04;10.29;69.21
65876;HTU21D;52657;51.128;5.938;2024-01-30T02:45:31;10.28;69.20
65876;HTU21D;52657;51.128;5.938;2024-01-30T02:47:57;10.27;69.20
65876;HTU21D;52657;51.128;5.938;2024-01-30T02:50:23;10.29;69.26
65876;HTU21D;52657;51.128;5.938;2024-01-30T02:52:48;10.28;69.34
65876;HTU21D;52657;51.128;5.938;2024-01-30T02:55:14;10.27;69.20
65876;HTU21D;52657;51.128;5.938;2024-01-30T02:57:43;10.27;69.25
65876;HTU21D;52657;51.128;5.938;2024-01-30T03:00:09;10.29;69.27
65876;HTU21D;52657;51.128;5.938;2024-01-30T03:02:36;10.29;69.32
65876;HTU21D;52657;51.128;5.938;2024-01-30T03:05:05;10.28;69.35
65876;HTU21D;52657;51.128;5.938;2024-01-30T03:07:31;10.30;69.39
65876;HTU21D;52657;51.128;5.938;2024-01-30T03:09:57;10.29;69.44
65876;HTU21D;52657;51.128;5.938;2024-01-30T03:12:23;10.29;69.45
65876;HTU21D;52657;51.128;5.938;2024-01-30T03:14:48;10.28;69.42
65876;HTU21D;52657;51.128;5.938;2024-01-30T03:17:15;10.29;69.50
65876;HTU21D;52657;51.128;5.938;2024-01-30T03:19:41;10.28;69.56
65876;HTU21D;52657;51.128;5.938;2024-01-30T03:22:07;10.27;69.68
65876;HTU21D;52657;51.128;5.938;2024-01-30T03:24:32;10.27;69.84
65876;HTU21D;52657;51.128;5.938;2024-01-30T03:26:58;10.29;69.85
65876;HTU21D;52657;51.128;5.938;2024-01-30T03:29:24;10.30;69.80
65876;HTU21D;52657;51.128;5.938;2024-01-30T03:31:50;10.29;69.89
65876;HTU21D;52657;51.128;5.938;2024-01-30T03:34:16;10.29;69.88
65876;HTU21D;52657;51.128;5.938;2024-01-30T03:36:42;10.31;70.03
65876;HTU21D;52657;51.128;5.938;2024-01-30T03:39:07;10.33;70.16
65876;HTU21D;52657;51.128;5.938;2024-01-30T03:41:33;10.35;70.16
65876;HTU21D;52657;51.128;5.938;2024-01-30T03:43:59;10.36;70.09
65876;HTU21D;52657;51.128;5.938;2024-01-30T03:46:25;10.39;69.84
65876;HTU21D;52657;51.128;5.938;2024-01-30T03:48:51;10.39;69.79
65876;HTU21D;52657;51.128;5.938;2024-01-30T03:51:16;10.39;69.71
65876;HTU21D;52657;51.128;5.938;2024-01-30T03:53:43;10.40;69.79
65876;HTU21D;52657;51.128;5.938;2024-01-30T03:56:09;10.41;69.91
65876;HTU21D;52657;51.128;5.938;2024-01-30T03:58:35;10.42;69.97
65876;HTU21D;52657;51.128;5.938;2024-01-30T04:01:01;10.41;70.01
65876;HTU21D;52657;51.128;5.938;2024-01-30T04:03:27;10.43;70.00
65876;HTU21D;52657;51.128;5.938;2024-01-30T04:05:53;10.41;69.82
65876;HTU21D;52657;51.128;5.938;2024-01-30T04:08:19;10.41;69.73
65876;HTU21D;52657;51.128;5.938;2024-01-30T04:10:46;10.39;69.75
65876;HTU21D;52657;51.128;5.938;2024-01-30T04:13:12;10.40;69.68
65876;HTU21D;52657;51.128;5.938;2024-01-30T04:15:37;10.39;69.71
65876;HTU21D;52657;51.128;5.938;2024-01-30T04:18:03;10.40;69.75
65876;HTU21D;52657;51.128;5.938;2024-01-30T04:20:30;10.39;69.92
65876;HTU21D;52657;51.128;5.938;2024-01-30T04:22:56;10.39;70.06
65876;HTU21D;52657;51.128;5.938;2024-01-30T04:25:24;10.40;70.16
65876;HTU21D;52657;51.128;5.938;2024-01-30T04:27:50;10.42;70.19
65876;HTU21D;52657;51.128;5.938;2024-01-30T04:30:16;10.42;70.26
65876;HTU21D;52657;51.128;5.938;2024-01-30T04:32:43;10.43;70.34
65876;HTU21D;52657;51.128;5.938;2024-01-30T04:35:09;10.44;70.37
65876;HTU21D;52657;51.128;5.938;2024-01-30T04:37:35;10.45;70.39
65876;HTU21D;52657;51.128;5.938;2024-01-30T04:40:01;10.46;70.38
65876;HTU21D;52657;51.128;5.938;2024-01-30T04:42:27;10.46;70.29
65876;HTU21D;52657;51.128;5.938;2024-01-30T04:44:52;10.46;70.20
65876;HTU21D;52657;51.128;5.938;2024-01-30T04:47:18;10.45;70.18
65876;HTU21D;52657;51.128;5.938;2024-01-30T04:49:44;10.44;70.09
65876;HTU21D;52657;51.128;5.938;2024-01-30T04:52:09;10.44;70.21
65876;HTU21D;52657;51.128;5.938;2024-01-30T04:54:36;10.45;70.35
65876;HTU21D;52657;51.128;5.938;2024-01-30T04:57:05;10.45;70.40
65876;HTU21D;52657;51.128;5.938;2024-01-30T04:59:35;10.46;70.64
65876;HTU21D;52657;51.128;5.938;2024-01-30T05:02:01;10.46;70.79
65876;HTU21D;52657;51.128;5.938;2024-01-30T05:04:29;10.50;70.84
65876;HTU21D;52657;51.128;5.938;2024-01-30T05:06:57;10.52;70.97
65876;HTU21D;52657;51.128;5.938;2024-01-30T05:09:23;10.56;71.08
65876;HTU21D;52657;51.128;5.938;2024-01-30T05:11:48;10.58;71.10
65876;HTU21D;52657;51.128;5.938;2024-01-30T05:14:14;10.62;71.22
65876;HTU21D;52657;51.128;5.938;2024-01-30T05:16:43;10.65;71.29
65876;HTU21D;52657;51.128;5.938;2024-01-30T05:19:13;10.66;71.13
65876;HTU21D;52657;51.128;5.938;2024-01-30T05:21:39;10.67;71.37
65876;HTU21D;52657;51.128;5.938;2024-01-30T05:24:06;10.69;71.31
65876;HTU21D;52657;51.128;5.938;2024-01-30T05:26:32;10.71;71.55
65876;HTU21D;52657;51.128;5.938;2024-01-30T05:28:58;10.74;71.70
65876;HTU21D;52657;51.128;5.938;2024-01-30T05:31:24;10.79;71.58
65876;HTU21D;52657;51.128;5.938;2024-01-30T05:33:51;10.83;71.64
65876;HTU21D;52657;51.128;5.938;2024-01-30T05:36:17;10.87;71.75
65876;HTU21D;52657;51.128;5.938;2024-01-30T05:38:43;10.92;71.67
65876;HTU21D;52657;51.128;5.938;2024-01-30T05:41:09;10.95;71.68
65876;HTU21D;52657;51.128;5.938;2024-01-30T05:43:35;10.99;71.58
65876;HTU21D;52657;51.128;5.938;2024-01-30T05:46:00;11.01;71.64
65876;HTU21D;52657;51.128;5.938;2024-01-30T05:48:26;11.02;71.59
65876;HTU21D;52657;51.128;5.938;2024-01-30T05:50:52;11.05;71.54
65876;HTU21D;52657;51.128;5.938;2024-01-30T05:53:17;11.08;71.45
65876;HTU21D;52657;51.128;5.938;2024-01-30T05:55:43;11.09;71.34
65876;HTU21D;52657;51.128;5.938;2024-01-30T05:58:09;11.11;71.42
65876;HTU21D;52657;51.128;5.938;2024-01-30T06:00:35;11.12;71.41
65876;HTU21D;52657;51.128;5.938;2024-01-30T06:03:00;11.14;71.45
65876;HTU21D;52657;51.128;5.938;2024-01-30T06:05:26;11.13;71.34
65876;HTU21D;52657;51.128;5.938;2024-01-30T06:07:52;11.14;71.41
65876;HTU21D;52657;51.128;5.938;2024-01-30T06:10:18;11.16;71.48
65876;HTU21D;52657;51.128;5.938;2024-01-30T06:12:44;11.17;71.71
65876;HTU21D;52657;51.128;5.938;2024-01-30T06:15:10;11.18;71.86
65876;HTU21D;52657;51.128;5.938;2024-01-30T06:17:37;11.19;71.84
65876;HTU21D;52657;51.128;5.938;2024-01-30T06:20:04;11.20;72.03
65876;HTU21D;52657;51.128;5.938;2024-01-30T06:22:33;11.23;71.90
65876;HTU21D;52657;51.128;5.938;2024-01-30T06:24:59;11.24;72.16
65876;HTU21D;52657;51.128;5.938;2024-01-30T06:27:25;11.25;72.13
65876;HTU21D;52657;51.128;5.938;2024-01-30T06:30:01;11.28;72.33
65876;HTU21D;52657;51.128;5.938;2024-01-30T06:32:35;11.32;72.25
65876;HTU21D;52657;51.128;5.938;2024-01-30T06:35:14;11.33;72.19
65876;HTU21D;52657;51.128;5.938;2024-01-30T06:37:58;11.38;72.12
65876;HTU21D;52657;51.128;5.938;2024-01-30T06:40:26;11.38;72.14
65876;HTU21D;52657;51.128;5.938;2024-01-30T06:42:55;11.41;72.17
65876;HTU21D;52657;51.128;5.938;2024-01-30T06:45:21;11.43;72.18
65876;HTU21D;52657;51.128;5.938;2024-01-30T06:47:50;11.44;72.15
65876;HTU21D;52657;51.128;5.938;2024-01-30T06:50:15;11.46;72.25
65876;HTU21D;52657;51.128;5.938;2024-01-30T06:52:41;11.48;72.16
65876;HTU21D;52657;51.128;5.938;2024-01-30T06:55:07;11.47;72.13
65876;HTU21D;52657;51.128;5.938;2024-01-30T06:57:33;11.47;72.16
65876;HTU21D;52657;51.128;5.938;2024-01-30T06:59:59;11.51;72.15
65876;HTU21D;52657;51.128;5.938;2024-01-30T07:02:24;11.53;72.10
65876;HTU21D;52657;51.128;5.938;2024-01-30T07:04:50;11.55;72.12
65876;HTU21D;52657;51.128;5.938;2024-01-30T07:07:16;11.56;72.06
65876;HTU21D;52657;51.128;5.938;2024-01-30T07:09:42;11.59;72.06
65876;HTU21D;52657;51.128;5.938;2024-01-30T07:12:08;11.59;72.11
65876;HTU21D;52657;51.128;5.938;2024-01-30T07:14:34;11.62;72.11
65876;HTU21D;52657;51.128;5.938;2024-01-30T07:17:00;11.63;72.22
65876;HTU21D;52657;51.128;5.938;2024-01-30T07:19:26;11.67;72.27
65876;HTU21D;52657;51.128;5.938;2024-01-30T07:21:52;11.71;72.13
65876;HTU21D;52657;51.128;5.938;2024-01-30T07:24:20;11.74;72.51
65876;HTU21D;52657;51.128;5.938;2024-01-30T07:26:49;11.83;72.29
65876;HTU21D;52657;51.128;5.938;2024-01-30T07:29:17;11.88;72.23
65876;HTU21D;52657;51.128;5.938;2024-01-30T07:31:46;11.94;72.17
65876;HTU21D;52657;51.128;5.938;2024-01-30T07:34:12;11.99;72.12
65876;HTU21D;52657;51.128;5.938;2024-01-30T07:36:40;12.06;71.99
65876;HTU21D;52657;51.128;5.938;2024-01-30T07:39:06;12.13;71.85
65876;HTU21D;52657;51.128;5.938;2024-01-30T07:41:32;12.18;71.74
65876;HTU21D;52657;51.128;5.938;2024-01-30T07:43:58;12.22;71.57
65876;HTU21D;52657;51.128;5.938;2024-01-30T07:46:26;12.30;71.41
65876;HTU21D;52657;51.128;5.938;2024-01-30T07:48:58;12.35;71.22
65876;HTU21D;52657;51.128;5.938;2024-01-30T07:51:24;12.41;70.96
65876;HTU21D;52657;51.128;5.938;2024-01-30T07:53:50;12.44;70.81
65876;HTU21D;52657;51.128;5.938;2024-01-30T07:56:18;12.46;70.70
65876;HTU21D;52657;51.128;5.938;2024-01-30T07:58:47;12.49;70.49
65876;HTU21D;52657;51.128;5.938;2024-01-30T08:01:19;12.50;70.27
65876;HTU21D;52657;51.128;5.938;2024-01-30T08:03:45;12.49;70.21
65876;HTU21D;52657;51.128;5.938;2024-01-30T08:06:11;12.50;70.16
65876;HTU21D;52657;51.128;5.938;2024-01-30T08:08:43;12.52;70.04
65876;HTU21D;52657;51.128;5.938;2024-01-30T08:11:12;12.56;69.89
65876;HTU21D;52657;51.128;5.938;2024-01-30T08:13:40;12.55;69.89
65876;HTU21D;52657;51.128;5.938;2024-01-30T08:16:06;12.57;69.69
65876;HTU21D;52657;51.128;5.938;2024-01-30T08:18:52;12.56;69.71
65876;HTU21D;52657;51.128;5.938;2024-01-30T08:21:21;12.58;69.66
65876;HTU21D;52657;51.128;5.938;2024-01-30T08:23:47;12.59;69.61
65876;HTU21D;52657;51.128;5.938;2024-01-30T08:26:12;12.60;69.60
65876;HTU21D;52657;51.128;5.938;2024-01-30T08:28:38;12.61;69.58
65876;HTU21D;52657;51.128;5.938;2024-01-30T08:31:07;12.62;69.52
65876;HTU21D;52657;51.128;5.938;2024-01-30T08:33:33;12.65;69.48
65876;HTU21D;52657;51.128;5.938;2024-01-30T08:35:58;12.66;69.43
65876;HTU21D;52657;51.128;5.938;2024-01-30T08:38:26;12.70;69.48
65876;HTU21D;52657;51.128;5.938;2024-01-30T08:40:52;12.74;69.33
65876;HTU21D;52657;51.128;5.938;2024-01-30T08:43:18;12.76;69.26
65876;HTU21D;52657;51.128;5.938;2024-01-30T08:45:46;12.79;69.25
65876;HTU21D;52657;51.128;5.938;2024-01-30T08:48:12;12.80;69.22
65876;HTU21D;52657;51.128;5.938;2024-01-30T08:50:38;12.85;69.24
65876;HTU21D;52657;51.128;5.938;2024-01-30T08:53:04;12.89;69.26
65876;HTU21D;52657;51.128;5.938;2024-01-30T08:55:33;12.91;69.29
65876;HTU21D;52657;51.128;5.938;2024-01-30T08:58:08;12.97;69.16
65876;HTU21D;52657;51.128;5.938;2024-01-30T09:00:37;13.04;68.94
65876;HTU21D;52657;51.128;5.938;2024-01-30T09:03:07;13.11;68.81
65876;HTU21D;52657;51.128;5.938;2024-01-30T09:05:32;13.19;68.66
65876;HTU21D;52657;51.128;5.938;2024-01-30T09:08:08;13.26;68.61
65876;HTU21D;52657;51.128;5.938;2024-01-30T09:10:41;13.41;68.35
65876;HTU21D;52657;51.128;5.938;2024-01-30T09:13:27;13.52;67.95
65876;HTU21D;52657;51.128;5.938;2024-01-30T09:16:02;13.56;67.63
65876;HTU21D;52657;51.128;5.938;2024-01-30T09:18:41;13.58;67.37
65876;HTU21D;52657;51.128;5.938;2024-01-30T09:21:10;13.54;67.37
65876;HTU21D;52657;51.128;5.938;2024-01-30T09:23:49;13.52;67.23
65876;HTU21D;52657;51.128;5.938;2024-01-30T09:26:23;13.49;67.34
65876;HTU21D;52657;51.128;5.938;2024-01-30T09:29:07;13.50;67.30
65876;HTU21D;52657;51.128;5.938;2024-01-30T09:31:35;13.50;67.33
65876;HTU21D;52657;51.128;5.938;2024-01-30T09:34:01;13.49;67.37
65876;HTU21D;52657;51.128;5.938;2024-01-30T09:36:26;13.49;67.33
65876;HTU21D;52657;51.128;5.938;2024-01-30T09:38:53;13.46;67.42
65876;HTU21D;52657;51.128;5.938;2024-01-30T09:41:19;13.43;67.57
65876;HTU21D;52657;51.128;5.938;2024-01-30T09:43:48;13.45;67.59
65876;HTU21D;52657;51.128;5.938;2024-01-30T09:46:16;13.46;67.58
65876;HTU21D;52657;51.128;5.938;2024-01-30T09:48:46;13.46;67.68
65876;HTU21D;52657;51.128;5.938;2024-01-30T09:51:14;13.47;67.67
65876;HTU21D;52657;51.128;5.938;2024-01-30T09:53:42;13.46;67.75
65876;HTU21D;52657;51.128;5.938;2024-01-30T09:56:08;13.47;67.79
65876;HTU21D;52657;51.128;5.938;2024-01-30T09:58:34;13.49;67.72
65876;HTU21D;52657;51.128;5.938;2024-01-30T10:01:00;13.53;67.70
65876;HTU21D;52657;51.128;5.938;2024-01-30T10:03:26;13.55;67.68
65876;HTU21D;52657;51.128;5.938;2024-01-30T10:05:55;13.60;67.62
65876;HTU21D;52657;51.128;5.938;2024-01-30T10:08:21;13.64;67.60
65876;HTU21D;52657;51.128;5.938;2024-01-30T10:10:50;13.69;67.49
65876;HTU21D;52657;51.128;5.938;2024-01-30T10:13:16;13.69;67.55
65876;HTU21D;52657;51.128;5.938;2024-01-30T10:15:42;13.76;67.28
65876;HTU21D;52657;51.128;5.938;2024-01-30T10:18:08;13.75;67.42
65876;HTU21D;52657;51.128;5.938;2024-01-30T10:20:36;13.71;67.56
65876;HTU21D;52657;51.128;5.938;2024-01-30T10:23:02;13.75;67.58
65876;HTU21D;52657;51.128;5.938;2024-01-30T10:25:31;13.75;67.62
65876;HTU21D;52657;51.128;5.938;2024-01-30T10:27:59;13.78;67.65
65876;HTU21D;52657;51.128;5.938;2024-01-30T10:30:29;13.85;67.65
65876;HTU21D;52657;51.128;5.938;2024-01-30T10:32:55;13.89;67.59
65876;HTU21D;52657;51.128;5.938;2024-01-30T10:35:21;13.94;67.46
65876;HTU21D;52657;51.128;5.938;2024-01-30T10:37:49;13.99;67.39
65876;HTU21D;52657;51.128;5.938;2024-01-30T10:40:15;14.05;67.20
65876;HTU21D;52657;51.128;5.938;2024-01-30T10:42:43;14.08;67.20
65876;HTU21D;52657;51.128;5.938;2024-01-30T10:45:12;14.11;67.10
65876;HTU21D;52657;51.128;5.938;2024-01-30T10:47:42;14.12;67.28
65876;HTU21D;52657;51.128;5.938;2024-01-30T10:50:09;14.13;67.20
65876;HTU21D;52657;51.128;5.938;2024-01-30T10:52:36;14.19;67.21
65876;HTU21D;52657;51.128;5.938;2024-01-30T10:55:11;14.25;67.09
65876;HTU21D;52657;51.128;5.938;2024-01-30T10:57:38;14.26;67.08
65876;HTU21D;52657;51.128;5.938;2024-01-30T11:00:10;14.27;67.10
65876;HTU21D;52657;51.128;5.938;2024-01-30T11:02:41;14.28;67.11
65876;HTU21D;52657;51.128;5.938;2024-01-30T11:08:32;14.27;67.19
65876;HTU21D;52657;51.128;5.938;2024-01-30T11:11:09;14.27;67.23
65876;HTU21D;52657;51.128;5.938;2024-01-30T11:13:37;14.28;67.24
65876;HTU21D;52657;51.128;5.938;2024-01-30T11:16:05;14.32;67.20
65876;HTU21D;52657;51.128;5.938;2024-01-30T11:18:35;14.33;67.14
65876;HTU21D;52657;51.128;5.938;2024-01-30T11:21:13;14.36;67.09
65876;HTU21D;52657;51.128;5.938;2024-01-30T11:23:42;14.38;67.18
65876;HTU21D;52657;51.128;5.938;2024-01-30T11:26:14;14.37;67.26
65876;HTU21D;52657;51.128;5.938;2024-01-30T11:28:42;14.39;67.27
65876;HTU21D;52657;51.128;5.938;2024-01-30T11:31:19;14.40;67.27
65876;HTU21D;52657;51.128;5.938;2024-01-30T11:33:52;14.40;67.33
65876;HTU21D;52657;51.128;5.938;2024-01-30T11:36:52;14.43;67.40
65876;HTU21D;52657;51.128;5.938;2024-01-30T11:39:39;14.49;67.25
65876;HTU21D;52657;51.128;5.938;2024-01-30T11:42:12;14.49;67.35
65876;HTU21D;52657;51.128;5.938;2024-01-30T11:44:38;14.51;67.33
65876;HTU21D;52657;51.128;5.938;2024-01-30T11:47:06;14.54;67.34
65876;HTU21D;52657;51.128;5.938;2024-01-30T11:49:58;14.54;67.38
65876;HTU21D;52657;51.128;5.938;2024-01-30T11:52:24;14.54;67.36
65876;HTU21D;52657;51.128;5.938;2024-01-30T11:54:53;14.55;67.49
65876;HTU21D;52657;51.128;5.938;2024-01-30T11:57:20;14.55;67.49
65876;HTU21D;52657;51.128;5.938;2024-01-30T11:59:51;14.55;67.62
65876;HTU21D;52657;51.128;5.938;2024-01-30T12:02:34;14.58;67.65
65876;HTU21D;52657;51.128;5.938;2024-01-30T12:05:04;14.59;67.66
65876;HTU21D;52657;51.128;5.938;2024-01-30T12:07:36;14.59;67.72
65876;HTU21D;52657;51.128;5.938;2024-01-30T12:10:08;14.58;67.71
65876;HTU21D;52657;51.128;5.938;2024-01-30T12:12:41;14.60;67.73
65876;HTU21D;52657;51.128;5.938;2024-01-30T12:15:08;14.62;67.79
65876;HTU21D;52657;51.128;5.938;2024-01-30T12:17:35;14.62;67.68
65876;HTU21D;52657;51.128;5.938;2024-01-30T12:20:09;14.64;67.66
65876;HTU21D;52657;51.128;5.938;2024-01-30T12:22:40;14.60;67.75
65876;HTU21D;52657;51.128;5.938;2024-01-30T12:25:11;14.63;67.67
65876;HTU21D;52657;51.128;5.938;2024-01-30T12:27:39;14.63;67.69
65876;HTU21D;52657;51.128;5.938;2024-01-30T12:30:08;14.60;67.67
65876;HTU21D;52657;51.128;5.938;2024-01-30T12:32:41;14.57;67.78
65876;HTU21D;52657;51.128;5.938;2024-01-30T12:35:10;14.58;67.83
65876;HTU21D;52657;51.128;5.938;2024-01-30T12:37:40;14.59;67.84
65876;HTU21D;52657;51.128;5.938;2024-01-30T12:40:07;14.58;67.92
65876;HTU21D;52657;51.128;5.938;2024-01-30T12:42:36;14.57;67.92
65876;HTU21D;52657;51.128;5.938;2024-01-30T12:45:03;14.54;68.10
65876;HTU21D;52657;51.128;5.938;2024-01-30T12:47:38;14.54;68.15
65876;HTU21D;52657;51.128;5.938;2024-01-30T12:50:03;14.54;68.10
65876;HTU21D;52657;51.128;5.938;2024-01-30T12:52:30;14.50;68.16
65876;HTU21D;52657;51.128;5.938;2024-01-30T12:54:56;14.52;67.94
65876;HTU21D;52657;51.128;5.938;2024-01-30T12:57:24;14.50;68.02
65876;HTU21D;52657;51.128;5.938;2024-01-30T12:59:50;14.52;67.99
65876;HTU21D;52657;51.128;5.938;2024-01-30T13:02:16;14.59;67.79
65876;HTU21D;52657;51.128;5.938;2024-01-30T13:04:43;14.63;67.70
65876;HTU21D;52657;51.128;5.938;2024-01-30T13:07:09;14.67;67.59
65876;HTU21D;52657;51.128;5.938;2024-01-30T13:09:34;14.66;67.55
65876;HTU21D;52657;51.128;5.938;2024-01-30T13:12:00;14.71;67.31
65876;HTU21D;52657;51.128;5.938;2024-01-30T13:14:26;14.77;67.02
65876;HTU21D;52657;51.128;5.938;2024-01-30T13:16:52;14.81;66.76
65876;HTU21D;52657;51.128;5.938;2024-01-30T13:19:20;14.82;66.72
65876;HTU21D;52657;51.128;5.938;2024-01-30T13:21:46;14.83;66.74
65876;HTU21D;52657;51.128;5.938;2024-01-30T13:24:19;14.86;66.44
65876;HTU21D;52657;51.128;5.938;2024-01-30T13:27:17;14.87;66.45
65876;HTU21D;52657;51.128;5.938;2024-01-30T13:29:46;14.87;66.33
65876;HTU21D;52657;51.128;5.938;2024-01-30T13:32:12;14.82;66.34
65876;HTU21D;52657;51.128;5.938;2024-01-30T13:34:43;14.83;66.11
65876;HTU21D;52657;51.128;5.938;2024-01-30T13:37:08;14.80;65.68
65876;HTU21D;52657;51.128;5.938;2024-01-30T13:39:36;14.78;65.41
65876;HTU21D;52657;51.128;5.938;2024-01-30T13:42:05;14.71;65.51
65876;HTU21D;52657;51.128;5.938;2024-01-30T13:44:35;14.73;65.24
65876;HTU21D;52657;51.128;5.938;2024-01-30T13:47:11;14.78;64.65
65876;HTU21D;52657;51.128;5.938;2024-01-30T13:52:15;14.79;63.83
65876;HTU21D;52657;51.128;5.938;2024-01-30T13:57:32;14.81;63.47
65876;HTU21D;52657;51.128;5.938;2024-01-30T14:02:34;14.84;63.03
65876;HTU21D;52657;51.128;5.938;2024-01-30T14:05:00;14.87;62.92
65876;HTU21D;52657;51.128;5.938;2024-01-30T14:07:29;14.85;62.28
65876;HTU21D;52657;51.128;5.938;2024-01-30T14:10:20;14.77;61.76
65876;HTU21D;52657;51.128;5.938;2024-01-30T14:12:49;14.77;61.12
65876;HTU21D;52657;51.128;5.938;2024-01-30T14:15:15;14.81;60.35
65876;HTU21D;52657;51.128;5.938;2024-01-30T14:17:46;14.77;60.12
65876;HTU21D;52657;51.128;5.938;2024-01-30T14:20:14;14.74;59.42
65876;HTU21D;52657;51.128;5.938;2024-01-30T14:22:46;14.71;58.73
65876;HTU21D;52657;51.128;5.938;2024-01-30T14:25:14;14.64;58.80
65876;HTU21D;52657;51.128;5.938;2024-01-30T14:30:38;14.59;58.16
65876;HTU21D;52657;51.128;5.938;2024-01-30T14:33:08;14.62;57.99
65876;HTU21D;52657;51.128;5.938;2024-01-30T14:38:56;14.56;57.67
65876;HTU21D;52657;51.128;5.938;2024-01-30T14:41:34;14.55;56.85
65876;HTU21D;52657;51.128;5.938;2024-01-30T14:44:42;14.48;56.23
65876;HTU21D;52657;51.128;5.938;2024-01-30T14:47:09;14.41;56.03
65876;HTU21D;52657;51.128;5.938;2024-01-30T14:49:35;14.43;56.16
65876;HTU21D;52657;51.128;5.938;2024-01-30T14:52:00;14.50;55.87
65876;HTU21D;52657;51.128;5.938;2024-01-30T14:54:29;14.53;55.98
65876;HTU21D;52657;51.128;5.938;2024-01-30T14:56:55;14.55;55.84
65876;HTU21D;52657;51.128;5.938;2024-01-30T14:59:21;14.57;55.54
65876;HTU21D;52657;51.128;5.938;2024-01-30T15:01:47;14.57;55.49
65876;HTU21D;52657;51.128;5.938;2024-01-30T15:04:14;14.51;55.16
65876;HTU21D;52657;51.128;5.938;2024-01-30T15:06:40;14.43;55.26
65876;HTU21D;52657;51.128;5.938;2024-01-30T15:09:13;14.41;55.48
65876;HTU21D;52657;51.128;5.938;2024-01-30T15:11:41;14.37;55.29
65876;HTU21D;52657;51.128;5.938;2024-01-30T15:14:07;14.34;54.97
65876;HTU21D;52657;51.128;5.938;2024-01-30T15:16:32;14.33;54.78
65876;HTU21D;52657;51.128;5.938;2024-01-30T15:18:58;14.28;54.78
65876;HTU21D;52657;51.128;5.938;2024-01-30T15:21:24;14.22;54.64
65876;HTU21D;52657;51.128;5.938;2024-01-30T15:23:50;14.17;54.74
65876;HTU21D;52657;51.128;5.938;2024-01-30T15:26:16;14.17;54.96
65876;HTU21D;52657;51.128;5.938;2024-01-30T15:28:41;14.15;54.96
65876;HTU21D;52657;51.128;5.938;2024-01-30T15:31:07;14.19;55.03
65876;HTU21D;52657;51.128;5.938;2024-01-30T15:33:35;14.20;54.68
65876;HTU21D;52657;51.128;5.938;2024-01-30T15:36:03;14.18;54.69
65876;HTU21D;52657;51.128;5.938;2024-01-30T15:38:42;14.11;54.85
65876;HTU21D;52657;51.128;5.938;2024-01-30T15:41:21;14.05;54.91
65876;HTU21D;52657;51.128;5.938;2024-01-30T15:43:55;14.03;54.64
65876;HTU21D;52657;51.128;5.938;2024-01-30T15:46:29;14.05;54.36
65876;HTU21D;52657;51.128;5.938;2024-01-30T15:49:10;14.00;54.20